Previous Day
Next Day
Current Day
SHEF ID: FVSO2 FAIRVIEW
STATION TYPE: Mesonet
PRECIP AIR-TEMP WIND-DIRWIND-SPEED REL-HUMID SOLAR-RAD
in F deg mph % W/m2
Raw-Meson Raw-Meson Raw-Meson Raw-Meson Raw-Meson Raw-Meson
(US/Central)
05/13 00:00 0.00 49.28 159.75 2.63 88.25 0.00
05/13 01:00 0.00 48.42 199.00 3.25 89.75 0.00
05/13 02:00 0.00 48.83 182.00 2.74 89.00 0.00
05/13 03:00 0.00 47.66 187.25 3.63 90.25 0.00
05/13 04:00 0.00 46.71 176.00 2.46 92.25 0.00
05/13 05:00 0.00 44.60 114.00 1.62 95.75 0.00
05/13 06:00 0.00 42.84 188.25 1.90 97.00 0.00
05/13 07:00 0.00 41.23 255.75 1.34 97.50 18.50
05/13 08:00 0.00 47.08 127.25 0.05 95.25 159.50
05/13 09:00 0.00 53.92 141.50 3.75 81.75 354.25
05/13 10:00 0.00 59.50 150.50 6.77 64.25 553.50
05/13 11:00 0.00 63.81 137.50 5.81 57.50 730.00
05/13 12:00 0.00 65.08 157.50 4.92 54.50 575.50
05/13 13:00 0.00 67.06 135.50 6.10 51.75 796.75
05/13 14:00 0.00 68.54 135.25 6.83 47.75 866.50
05/13 15:00 0.00 70.12 135.25 8.28 47.25 889.00
05/13 16:00 0.00 70.11 152.00 9.39 45.00 575.75
05/13 17:00 0.00 70.75 147.75 9.06 44.25 574.75
05/13 18:00 0.00 69.39 143.50 7.94 45.75 241.25
05/13 19:00 0.00 68.31 136.00 8.22 48.75 142.75
05/13 20:00 0.00 66.56 137.25 8.83 52.75 94.25
05/13 21:00 0.00 61.74 145.00 6.54 63.25 6.75
05/13 22:00 0.00 57.52 153.75 5.59 73.50 0.00
05/13 23:00 ---- 55.13 163.50 5.20 80.50 0.00